地図

経路データ

SID SEASON NUMBER BASIN SUBBASIN NAME ISO_TIME NATURE LAT LON WMO_WIND WMO_PRES WMO_AGENCY TRACK_TYPE DIST2LAND LANDFALL IFLAG USA_AGENCY USA_ATCF_ID USA_LAT USA_LON USA_RECORD USA_STATUS USA_WIND USA_PRES USA_SSHS USA_R34_NE USA_R34_SE USA_R34_SW USA_R34_NW USA_R50_NE USA_R50_SE USA_R50_SW USA_R50_NW USA_R64_NE USA_R64_SE USA_R64_SW USA_R64_NW USA_POCI USA_ROCI USA_RMW USA_EYE TOKYO_LAT TOKYO_LON TOKYO_GRADE TOKYO_WIND TOKYO_PRES TOKYO_R50_DIR TOKYO_R50_LONG TOKYO_R50_SHORT TOKYO_R30_DIR TOKYO_R30_LONG TOKYO_R30_SHORT TOKYO_LAND CMA_LAT CMA_LON CMA_CAT CMA_WIND CMA_PRES HKO_LAT HKO_LON HKO_CAT HKO_WIND HKO_PRES NEWDELHI_LAT NEWDELHI_LON NEWDELHI_GRADE NEWDELHI_WIND NEWDELHI_PRES NEWDELHI_CI NEWDELHI_DP NEWDELHI_POCI REUNION_LAT REUNION_LON REUNION_TYPE REUNION_WIND REUNION_PRES REUNION_TNUM REUNION_CI REUNION_RMW REUNION_R34_NE REUNION_R34_SE REUNION_R34_SW REUNION_R34_NW REUNION_R50_NE REUNION_R50_SE REUNION_R50_SW REUNION_R50_NW REUNION_R64_NE REUNION_R64_SE REUNION_R64_SW REUNION_R64_NW BOM_LAT BOM_LON BOM_TYPE BOM_WIND BOM_PRES BOM_TNUM BOM_CI BOM_RMW BOM_R34_NE BOM_R34_SE BOM_R34_SW BOM_R34_NW BOM_R50_NE BOM_R50_SE BOM_R50_SW BOM_R50_NW BOM_R64_NE BOM_R64_SE BOM_R64_SW BOM_R64_NW BOM_ROCI BOM_POCI BOM_EYE BOM_POS_METHOD BOM_PRES_METHOD NADI_LAT NADI_LON NADI_CAT NADI_WIND NADI_PRES WELLINGTON_LAT WELLINGTON_LON WELLINGTON_WIND WELLINGTON_PRES DS824_LAT DS824_LON DS824_STAGE DS824_WIND DS824_PRES TD9636_LAT TD9636_LON TD9636_STAGE TD9636_WIND TD9636_PRES TD9635_LAT TD9635_LON TD9635_WIND TD9635_PRES TD9635_ROCI NEUMANN_LAT NEUMANN_LON NEUMANN_CLASS NEUMANN_WIND NEUMANN_PRES MLC_LAT MLC_LON MLC_CLASS MLC_WIND MLC_PRES USA_GUST BOM_GUST BOM_GUST_PER REUNION_GUST REUNION_GUST_PER USA_SEAHGT USA_SEARAD_NE USA_SEARAD_SE USA_SEARAD_SW USA_SEARAD_NW STORM_SPEED STORM_DIR
1905214N17149 1905 31 WP MM NOT_NAMED 1905-08-01 16:00:00 NR 16.9000 148.900 main 2134 2130 __________O___ -1 16.9000 148.900 7 18 272
1905214N17149 1905 31 WP MM NOT_NAMED 1905-08-01 18:00:00 NR 16.9231 148.271 main 2130 2128 __________P___ -1 16.9231 148.271 7 18 272
1905214N17149 1905 31 WP MM NOT_NAMED 1905-08-01 21:00:00 NR 16.9533 147.343 main 2129 2103 __________P___ -1 16.9533 147.343 7 17 272
1905214N17149 1905 31 WP MM NOT_NAMED 1905-08-02 00:00:00 NR 16.9776 146.461 main 2103 2077 __________P___ -1 16.9776 146.461 7 16 271
1905214N17149 1905 31 WP MM NOT_NAMED 1905-08-02 03:00:00 NR 16.9955 145.650 main 2077 2068 __________P___ -1 16.9955 145.650 7 15 271
1905214N17149 1905 31 WP MM NOT_NAMED 1905-08-02 04:00:00 NR 17.0000 145.400 main 2068 2045 __________O___ -1 17.0000 145.400 7 14 271
1905214N17149 1905 31 WP MM NOT_NAMED 1905-08-02 06:00:00 NR 17.0074 144.934 main 2045 2019 __________P___ -1 17.0074 144.934 7 13 271
1905214N17149 1905 31 WP MM NOT_NAMED 1905-08-02 09:00:00 NR 17.0195 144.305 main 2019 1995 __________P___ -1 17.0195 144.305 7 12 272
1905214N17149 1905 31 WP MM NOT_NAMED 1905-08-02 12:00:00 NR 17.0411 143.732 main 1995 1965 __________P___ -1 17.0411 143.732 7 11 273
1905214N17149 1905 31 WP MM NOT_NAMED 1905-08-02 15:00:00 NR 17.0811 143.183 main 1965 1957 __________P___ -1 17.0811 143.183 7 11 275
1905214N17149 1905 31 WP MM NOT_NAMED 1905-08-02 16:00:00 NR 17.1000 143.000 main 1957 1919 __________O___ -1 17.1000 143.000 7 11 277
1905214N17149 1905 31 WP MM NOT_NAMED 1905-08-02 18:00:00 NR 17.1492 142.606 main 1919 1860 __________P___ -1 17.1492 142.606 7 11 279
1905214N17149 1905 31 WP MM NOT_NAMED 1905-08-02 21:00:00 NR 17.2422 142.021 main 1860 1802 __________P___ -1 17.2422 142.021 7 11 280
1905214N17149 1905 31 WP MM NOT_NAMED 1905-08-03 00:00:00 NR 17.3499 141.446 main 1802 1758 __________P___ -1 17.3499 141.446 7 11 281
1905214N17149 1905 31 WP MM NOT_NAMED 1905-08-03 03:00:00 NR 17.4628 140.884 main 1758 1737 __________P___ -1 17.4628 140.884 7 11 282
1905214N17149 1905 31 WP MM NOT_NAMED 1905-08-03 04:00:00 NR 17.5000 140.700 main 1737 1701 __________O___ -1 17.5000 140.700 7 11 281
1905214N17149 1905 31 WP MM NOT_NAMED 1905-08-03 06:00:00 NR 17.5637 140.331 main 1701 1650 __________P___ -1 17.5637 140.331 7 11 280
1905214N17149 1905 31 WP MM NOT_NAMED 1905-08-03 09:00:00 NR 17.6596 139.789 main 1654 1605 __________P___ -1 17.6596 139.789 7 10 281
1905214N17149 1905 31 WP MM NOT_NAMED 1905-08-03 12:00:00 NR 17.7584 139.265 main 1609 1559 __________P___ -1 17.7584 139.265 7 10 282
1905214N17149 1905 31 WP MM NOT_NAMED 1905-08-03 15:00:00 NR 17.8632 138.762 main 1563 1544 __________P___ -1 17.8632 138.762 7 10 283
1905214N17149 1905 31 WP MM NOT_NAMED 1905-08-03 16:00:00 NR 17.9000 138.600 main 1544 1519 __________O___ -1 17.9000 138.600 7 9 284
1905214N17149 1905 31 WP MM NOT_NAMED 1905-08-03 18:00:00 NR 17.9716 138.303 main 1519 1485 __________P___ -1 17.9716 138.303 7 9 285
1905214N17149 1905 31 WP MM NOT_NAMED 1905-08-03 21:00:00 NR 18.0855 137.878 main 1485 1442 __________P___ -1 18.0855 137.878 7 9 286
1905214N17149 1905 31 WP MM NOT_NAMED 1905-08-04 00:00:00 NR 18.2105 137.446 main 1442 1409 __________P___ -1 18.2105 137.446 7 9 287
1905214N17149 1905 31 WP MM NOT_NAMED 1905-08-04 03:00:00 NR 18.3499 136.973 main 1409 1396 __________P___ -1 18.3499 136.973 7 10 287
1905214N17149 1905 31 WP MM NOT_NAMED 1905-08-04 04:00:00 NR 18.4000 136.800 main 1396 1364 __________O___ -1 18.4000 136.800 7 11 286
1905214N17149 1905 31 WP MM NOT_NAMED 1905-08-04 06:00:00 NR 18.5054 136.410 main 1364 1321 __________P___ -1 18.5054 136.410 7 12 286
1905214N17149 1905 31 WP MM NOT_NAMED 1905-08-04 09:00:00 NR 18.6761 135.774 main 1321 1266 __________P___ -1 18.6761 135.774 7 13 286
1905214N17149 1905 31 WP MM NOT_NAMED 1905-08-04 12:00:00 NR 18.8561 135.102 main 1270 1209 __________P___ -1 18.8561 135.102 7 13 286
1905214N17149 1905 31 WP MM NOT_NAMED 1905-08-04 15:00:00 NR 19.0392 134.423 main 1209 1195 __________P___ -1 19.0392 134.423 7 13 286
1905214N17149 1905 31 WP MM NOT_NAMED 1905-08-04 16:00:00 NR 19.1000 134.200 main 1195 1164 __________O___ -1 19.1000 134.200 7 12 285
1905214N17149 1905 31 WP MM NOT_NAMED 1905-08-04 18:00:00 NR 19.2027 133.790 main 1164 1115 __________P___ -1 19.2027 133.790 7 12 285
1905214N17149 1905 31 WP MM NOT_NAMED 1905-08-04 21:00:00 NR 19.3569 133.182 main 1121 1074 __________P___ -1 19.3569 133.182 7 12 286
1905214N17149 1905 31 WP MM NOT_NAMED 1905-08-05 00:00:00 NR 19.5255 132.566 main 1074 1019 __________P___ -1 19.5255 132.566 7 12 287
1905214N17149 1905 31 WP MM NOT_NAMED 1905-08-05 03:00:00 NR 19.7243 131.923 main 1019 999 __________P___ -1 19.7243 131.923 7 13 289
1905214N17149 1905 31 WP MM NOT_NAMED 1905-08-05 04:00:00 NR 19.8000 131.700 main 999 949 __________O___ -1 19.8000 131.700 7 14 289
1905214N17149 1905 31 WP MM NOT_NAMED 1905-08-05 06:00:00 NR 19.9535 131.207 main 951 873 __________P___ -1 19.9535 131.207 7 15 289
1905214N17149 1905 31 WP MM NOT_NAMED 1905-08-05 09:00:00 NR 20.2149 130.437 main 873 810 __________P___ -1 20.2149 130.437 7 16 291
1905214N17149 1905 31 WP MM NOT_NAMED 1905-08-05 12:00:00 NR 20.5185 129.663 main 810 745 __________P___ -1 20.5185 129.663 7 16 295
1905214N17149 1905 31 WP MM NOT_NAMED 1905-08-05 15:00:00 NR 20.8706 128.929 main 745 730 __________P___ -1 20.8706 128.929 7 15 298
1905214N17149 1905 31 WP MM NOT_NAMED 1905-08-05 16:00:00 NR 21.0000 128.700 main 730 696 __________O___ -1 21.0000 128.700 7 15 302
1905214N17149 1905 31 WP MM NOT_NAMED 1905-08-05 18:00:00 NR 21.2816 128.236 main 696 656 __________P___ -1 21.2816 128.236 7 15 306
1905214N17149 1905 31 WP MM NOT_NAMED 1905-08-05 21:00:00 NR 21.7489 127.590 main 656 580 __________P___ -1 21.7489 127.590 7 15 311
1905214N17149 1905 31 WP MM NOT_NAMED 1905-08-06 00:00:00 NR 22.2445 127.034 main 580 519 __________P___ -1 22.2445 127.034 7 13 317
1905214N17149 1905 31 WP MM NOT_NAMED 1905-08-06 03:00:00 NR 22.7398 126.607 main 519 501 __________P___ -1 22.7398 126.607 7 12 323
1905214N17149 1905 31 WP MM NOT_NAMED 1905-08-06 04:00:00 NR 22.9000 126.500 main 501 479 __________O___ -1 22.9000 126.500 4 10 332
1905214N17149 1905 31 WP MM NOT_NAMED 1905-08-06 06:00:00 NR 23.1912 126.351 main 479 457 __________P___ -1 23.1912 126.351 4 9 342
1905214N17149 1905 31 WP MM NOT_NAMED 1905-08-06 09:00:00 NR 23.6162 126.254 main 457 440 __________P___ -1 23.6162 126.254 4 9 354
1905214N17149 1905 31 WP MM NOT_NAMED 1905-08-06 12:00:00 NR 24.0353 126.256 main 448 437 __________P___ -1 24.0353 126.256 4 8 3
1905214N17149 1905 31 WP MM NOT_NAMED 1905-08-06 15:00:00 NR 24.4572 126.291 main 437 436 __________P___ -1 24.4572 126.291 4 9 5
1905214N17149 1905 31 WP MM NOT_NAMED 1905-08-06 16:00:00 NR 24.6000 126.300 main 436 433 __________O___ -1 24.6000 126.300 4 9 3
1905214N17149 1905 31 WP MM NOT_NAMED 1905-08-06 18:00:00 NR 24.8902 126.302 main 433 432 __________P___ -1 24.8902 126.302 4 9 0
1905214N17149 1905 31 WP MM NOT_NAMED 1905-08-06 21:00:00 NR 25.3351 126.270 main 433 425 __________P___ -1 25.3351 126.270 4 9 354
1905214N17149 1905 31 WP MM NOT_NAMED 1905-08-07 00:00:00 NR 25.7886 126.208 main 430 428 __________P___ -1 25.7886 126.208 4 9 352
1905214N17149 1905 31 WP MM NOT_NAMED 1905-08-07 03:00:00 NR 26.2468 126.128 main 432 435 __________P___ -1 26.2468 126.128 4 9 351
1905214N17149 1905 31 WP MM NOT_NAMED 1905-08-07 04:00:00 NR 26.4000 126.100 main 439 __________O___ -1 26.4000 126.100 4 9 358

デジタル台風データ・検索

IBTrACS Databaseについて

本データベースは、米国NOAAが公開する1842年以降の世界の熱帯低気圧のベストトラックデータアーカイブInternational Best Track Archive for Climate Stewardship (IBTrACS)を、ウェブで閲覧しやすい形式に変換したものです。

最終更新日:2021-10-27